Time;durP1;ratioP1;P1;durP2;ratioP2;P2;SDS_P1;SDS_P2;PMS_P1;PMS_P2;Temp;Humidity;BMP_temperature;BMP_pressure;BME280_temperature;BME280_humidity;BME280_pressure;Samples;Min_cycle;Max_cycle;Signal;HPM_P1;HPM_P2
2021/12/21 00:00:53;;;;;;;14.15;2.45;;;;;;;15.00;36.85;101889.34;4412878;32;20034;-69
2021/12/21 00:03:19;;;;;;;10.18;2.50;;;;;;;15.02;37.06;101889.69;4414158;32;20109;-70
2021/12/21 00:05:45;;;;;;;13.93;2.67;;;;;;;15.01;37.20;101885.25;4411649;32;20042;-70
2021/12/21 00:08:13;;;;;;;13.62;2.62;;;;;;;15.15;37.54;101882.88;4413305;32;20135;-70
2021/12/21 00:10:43;;;;;;;11.75;2.40;;;;;;;15.13;37.44;101874.00;4412166;32;20130;-70
2021/12/21 00:21:23;;;;;;;14.18;2.83;;;;;;;15.47;36.59;101882.88;3982685;32;15023794;-70
2021/12/21 00:23:52;;;;;;;14.68;2.58;;;;;;;15.47;36.59;101882.88;4436546;32;20033;-70
2021/12/21 00:26:20;;;;;;;16.90;2.28;;;;;;;15.04;37.40;101882.31;4437773;32;20052;-70
2021/12/21 00:31:36;;;;;;;10.85;2.60;;;;;;;15.27;36.74;101879.31;3983917;32;15022303;-69
2021/12/21 00:34:06;;;;;;;8.80;2.67;;;;;;;15.22;37.05;101870.56;4431908;32;20112;-69
2021/12/21 00:36:32;;;;;;;10.57;2.37;;;;;;;15.16;37.05;101869.50;4435126;32;20865;-69
2021/12/21 00:39:01;;;;;;;13.80;2.58;;;;;;;14.89;37.31;101866.91;4431149;32;20026;-69
2021/12/21 00:41:26;;;;;;;16.90;2.83;;;;;;;15.01;37.18;101854.88;4434428;32;20064;-69
2021/12/21 00:43:52;;;;;;;11.23;2.03;;;;;;;14.90;37.98;101851.50;4431177;32;20081;-70
2021/12/21 00:46:18;;;;;;;11.32;2.90;;;;;;;14.95;37.65;101861.50;4433268;32;20017;-70
2021/12/21 00:48:50;;;;;;;14.80;2.20;;;;;;;14.93;37.83;101853.44;4431896;32;20026;-70
2021/12/21 00:51:17;;;;;;;11.48;2.47;;;;;;;14.64;37.99;101857.37;4432999;32;20093;-70
2021/12/21 00:53:43;;;;;;;9.43;2.47;;;;;;;14.89;36.92;101849.09;4431342;32;20041;-70
2021/12/21 00:56:09;;;;;;;15.70;2.78;;;;;;;14.87;36.60;101849.53;4436567;32;20048;-70
2021/12/21 00:58:34;;;;;;;9.27;2.33;;;;;;;14.76;36.77;101848.22;4434723;32;20324;-70
2021/12/21 01:01:05;;;;;;;8.40;2.87;;;;;;;14.84;36.58;101841.09;4430729;32;20064;-70
2021/12/21 01:03:33;;;;;;;18.85;2.22;;;;;;;14.92;36.70;101843.34;4431826;32;20037;-70
2021/12/21 01:06:11;;;;;;;16.40;3.10;;;;;;;15.13;36.76;101847.69;4434157;32;20431;-70
2021/12/21 01:08:55;;;;;;;9.93;2.55;;;;;;;15.05;36.96;101846.25;4431624;32;20084;-70
2021/12/21 01:11:34;;;;;;;13.27;3.05;;;;;;;14.94;36.83;101838.03;4431946;32;20026;-70
2021/12/21 01:14:35;;;;;;;12.35;3.03;;;;;;;15.12;36.24;101837.56;4434961;32;20084;-69
2021/12/21 01:17:00;;;;;;;12.85;2.62;;;;;;;15.00;36.94;101836.25;4435530;32;20034;-70
2021/12/21 01:19:36;;;;;;;24.10;3.25;;;;;;;14.85;36.58;101834.22;4430542;32;20074;-70
2021/12/21 01:25:20;;;;;;;14.48;3.05;;;;;;;15.42;36.61;101832.28;3982707;32;15043752;-70
2021/12/21 01:27:56;;;;;;;11.70;2.67;;;;;;;15.42;36.61;101835.19;4427574;32;20038;-69
2021/12/21 01:33:18;;;;;;;11.73;2.97;;;;;;;15.56;36.59;101823.47;3982707;32;15021388;-70
2021/12/21 01:35:47;;;;;;;;;;;;;;;15.56;36.59;101823.47;4441194;32;20067;-70
2021/12/21 01:41:04;;;;;;;12.82;2.90;;;;;;;15.64;36.04;101824.06;3980406;32;15022082;-70
2021/12/21 01:51:39;;;;;;;21.60;2.75;;;;;;;15.46;36.57;101818.88;4434043;32;19960;-70
2021/12/21 01:54:05;;;;;;;10.02;3.92;;;;;;;15.10;37.48;101820.22;4438469;32;20025;-70
2021/12/21 01:56:31;;;;;;;11.63;3.62;;;;;;;15.10;36.38;101814.56;4438412;32;20653;-70
2021/12/21 01:58:57;;;;;;;15.70;3.60;;;;;;;15.15;36.53;101811.97;4439483;32;20114;-70
2021/12/21 02:01:26;;;;;;;13.48;3.67;;;;;;;15.05;36.32;101807.38;4435234;32;20388;-70
2021/12/21 02:03:52;;;;;;;9.77;3.60;;;;;;;15.17;36.47;101805.88;4438528;32;20110;-70
2021/12/21 02:06:23;;;;;;;12.00;3.35;;;;;;;15.01;36.60;101801.00;4439466;32;20343;-70
2021/12/21 02:08:49;;;;;;;10.45;3.22;;;;;;;15.17;36.67;101803.03;4436249;32;20030;-70
2021/12/21 02:11:15;;;;;;;17.15;3.30;;;;;;;14.86;37.02;101801.81;4429638;32;20041;-69
2021/12/21 02:13:46;;;;;;;13.05;3.45;;;;;;;14.90;36.87;101805.34;4436642;32;20081;-69
2021/12/21 02:16:13;;;;;;;11.63;2.80;;;;;;;14.85;36.47;101803.81;4438549;32;20057;-69
2021/12/21 02:23:56;;;;;;;8.50;2.83;;;;;;;15.38;36.54;101794.00;3996889;31;15015543;-69
2021/12/21 02:29:34;;;;;;;11.45;2.75;;;;;;;15.12;36.57;101795.03;3984452;32;15024556;-69
2021/12/21 02:31:49;;;;;;;15.45;3.33;;;;;;;14.96;36.35;101789.37;4437477;32;20109;-69
2021/12/21 02:34:17;;;;;;;14.10;3.95;;;;;;;14.96;36.92;101800.72;4437865;32;20038;-69
2021/12/21 02:36:46;;;;;;;14.95;4.05;;;;;;;15.05;36.31;101798.88;4436389;32;20132;-69
2021/12/21 02:39:13;;;;;;;16.25;4.07;;;;;;;15.17;36.13;101788.84;4436253;32;20063;-69
2021/12/21 02:41:39;;;;;;;17.80;3.83;;;;;;;15.17;36.20;101791.69;4436113;32;20026;-69
2021/12/21 02:44:06;;;;;;;10.45;3.67;;;;;;;15.16;36.44;101788.03;4438427;32;20107;-69
2021/12/21 02:46:32;;;;;;;10.45;3.60;;;;;;;15.09;36.35;101788.22;4438299;32;20041;-69
2021/12/21 02:48:58;;;;;;;10.90;3.28;;;;;;;15.04;36.03;101780.25;4433714;32;20025;-69
2021/12/21 02:51:24;;;;;;;14.50;3.95;;;;;;;15.07;36.10;101781.44;4434913;32;20041;-69
2021/12/21 02:53:50;;;;;;;14.57;3.92;;;;;;;15.14;35.93;101778.41;4436149;32;20558;-69
2021/12/21 02:56:17;;;;;;;15.18;4.03;;;;;;;15.09;36.23;101785.41;4437768;32;20026;-69
2021/12/21 02:58:43;;;;;;;12.32;3.60;;;;;;;15.18;36.08;101784.75;4434599;32;20381;-69
2021/12/21 03:01:11;;;;;;;10.55;3.53;;;;;;;15.25;36.30;101784.59;4438566;32;20149;-68
2021/12/21 03:03:38;;;;;;;11.88;4.30;;;;;;;15.31;35.85;101788.47;4435255;32;20069;-68
2021/12/21 03:06:09;;;;;;;16.05;4.78;;;;;;;14.94;36.03;101783.38;4437120;32;20085;-69
2021/12/21 03:08:40;;;;;;;14.18;4.20;;;;;;;14.94;35.96;101787.00;4436307;32;20034;-70
2021/12/21 03:11:17;;;;;;;9.40;3.33;;;;;;;14.99;36.23;101783.66;4434076;32;20061;-68
2021/12/21 03:14:14;;;;;;;14.43;4.00;;;;;;;14.81;36.66;101785.31;4436516;32;20057;-68
2021/12/21 03:16:28;;;;;;;10.68;3.90;;;;;;;14.97;36.30;101788.16;4437844;32;20095;-69
2021/12/21 03:18:56;;;;;;;11.25;3.25;;;;;;;14.97;36.49;101791.78;4434991;32;20069;-69
2021/12/21 03:21:22;;;;;;;12.63;2.87;;;;;;;15.08;36.20;101780.97;4431507;32;20033;-69
2021/12/21 03:23:48;;;;;;;11.12;3.25;;;;;;;14.90;36.42;101789.13;4441783;32;20073;-69
2021/12/21 03:26:13;;;;;;;13.90;3.00;;;;;;;14.81;36.35;101785.31;4435020;32;20223;-69
2021/12/21 03:28:39;;;;;;;16.17;4.75;;;;;;;14.78;36.49;101786.19;4435458;32;20100;-69
2021/12/21 03:31:06;;;;;;;8.15;3.78;;;;;;;14.70;36.79;101779.13;4436728;32;20115;-69
2021/12/21 03:33:33;;;;;;;8.82;3.55;;;;;;;14.93;36.42;101778.94;4433718;32;20038;-69
2021/12/21 03:36:00;;;;;;;12.85;3.85;;;;;;;14.75;36.23;101772.91;4435402;32;20376;-69
2021/12/21 03:38:27;;;;;;;12.45;3.30;;;;;;;14.77;36.08;101778.94;4434319;32;20069;-69
2021/12/21 03:41:00;;;;;;;15.55;3.62;;;;;;;14.92;35.79;101772.50;4427298;32;20562;-69
2021/12/21 03:43:29;;;;;;;13.82;4.10;;;;;;;14.68;36.41;101775.94;4426745;32;20077;-69
2021/12/21 03:46:02;;;;;;;14.23;3.58;;;;;;;14.69;36.81;101772.66;4426462;32;20099;-69
2021/12/21 03:48:28;;;;;;;14.65;3.65;;;;;;;14.72;36.92;101773.78;4424431;32;20165;-68
2021/12/21 03:50:54;;;;;;;17.52;4.32;;;;;;;14.85;36.42;101766.97;4425207;32;20381;-68
2021/12/21 03:53:20;;;;;;;13.38;4.60;;;;;;;14.83;36.21;101757.34;4426381;32;20126;-68
2021/12/21 03:55:46;;;;;;;10.45;4.47;;;;;;;14.88;36.03;101759.66;4425940;32;20126;-68
2021/12/21 03:58:11;;;;;;;13.40;4.37;;;;;;;14.89;36.54;101764.06;4426351;32;20179;-68
2021/12/21 04:00:37;;;;;;;12.40;3.90;;;;;;;14.76;36.54;101763.97;4424465;32;20466;-68
2021/12/21 04:03:02;;;;;;;10.93;3.58;;;;;;;14.61;36.55;101764.78;4424574;32;20089;-68
2021/12/21 04:05:29;;;;;;;12.48;4.03;;;;;;;14.80;36.40;101756.19;4426676;32;20073;-68
2021/12/21 04:07:55;;;;;;;11.20;4.28;;;;;;;14.78;36.55;101749.34;4421486;32;20041;-68
2021/12/21 04:10:20;;;;;;;15.98;4.90;;;;;;;14.62;36.87;101757.88;4425330;32;20037;-68
2021/12/21 04:12:46;;;;;;;12.65;4.12;;;;;;;14.71;36.72;101747.50;4427326;32;20336;-68
2021/12/21 04:15:14;;;;;;;15.98;5.03;;;;;;;14.81;36.74;101746.44;4424870;32;20059;-68
2021/12/21 04:17:40;;;;;;;13.82;4.60;;;;;;;14.72;36.39;101745.47;4426011;32;20056;-68
2021/12/21 04:20:06;;;;;;;16.15;5.57;;;;;;;14.89;36.15;101745.03;4427067;32;20033;-68
2021/12/21 04:22:32;;;;;;;11.48;4.82;;;;;;;14.66;36.75;101745.19;4423462;32;20601;-68
2021/12/21 04:24:57;;;;;;;12.70;4.43;;;;;;;14.71;37.04;101744.69;4424606;32;20118;-68
2021/12/21 04:27:23;;;;;;;16.85;4.72;;;;;;;14.65;37.55;101745.66;4426652;32;20076;-68
2021/12/21 04:29:49;;;;;;;21.70;5.68;;;;;;;14.57;37.23;101750.69;4424079;32;20093;-68
2021/12/21 04:32:14;;;;;;;11.32;4.12;;;;;;;14.48;37.38;101742.00;4425186;32;20073;-68
2021/12/21 04:34:42;;;;;;;15.88;4.35;;;;;;;14.43;37.21;101745.37;4426637;32;20026;-68
2021/12/21 04:37:09;;;;;;;14.90;4.40;;;;;;;14.26;37.43;101743.75;4425904;32;20095;-69
2021/12/21 04:42:12;;;;;;;13.45;4.32;;;;;;;14.60;37.08;101740.53;3995789;31;15015354;-68
2021/12/21 04:44:37;;;;;;;11.20;4.60;;;;;;;14.37;37.47;101741.47;4462474;32;20070;-69
2021/12/21 04:47:04;;;;;;;15.82;3.87;;;;;;;14.24;37.64;101743.41;4459997;32;20116;-69
2021/12/21 04:49:30;;;;;;;10.20;3.80;;;;;;;14.19;37.89;101738.22;4457887;32;20045;-69
2021/12/21 04:51:56;;;;;;;14.48;3.62;;;;;;;14.12;38.07;101734.75;4454801;32;20399;-69
2021/12/21 04:54:22;;;;;;;10.15;3.92;;;;;;;14.10;37.98;101740.84;4453210;32;20088;-69
2021/12/21 04:56:47;;;;;;;10.15;3.90;;;;;;;13.90;37.95;101732.41;4456320;32;20041;-69
2021/12/21 04:59:13;;;;;;;12.02;3.30;;;;;;;13.59;38.27;101724.56;4455558;32;20045;-69
2021/12/21 05:01:39;;;;;;;18.62;4.30;;;;;;;13.65;38.31;101723.66;4455868;32;20120;-69
2021/12/21 05:04:04;;;;;;;13.20;3.80;;;;;;;13.52;38.38;101714.22;4454224;32;20677;-69
2021/12/21 05:06:31;;;;;;;16.02;3.72;;;;;;;13.82;37.68;101718.84;4455383;32;20077;-69
2021/12/21 05:09:12;;;;;;;14.55;3.15;;;;;;;13.83;37.41;101720.44;4456798;32;20137;-69
2021/12/21 05:11:41;;;;;;;17.33;2.75;;;;;;;13.80;37.97;101724.13;4459547;32;20491;-69
2021/12/21 05:14:07;;;;;;;12.15;2.10;;;;;;;13.61;38.18;101727.78;4458855;32;20067;-69
2021/12/21 05:16:33;;;;;;;9.75;2.72;;;;;;;13.55;38.22;101723.88;4459422;32;20524;-69
2021/12/21 05:18:59;;;;;;;18.62;3.42;;;;;;;13.69;38.03;101730.00;4456647;32;20191;-69
2021/12/21 05:21:25;;;;;;;16.55;2.62;;;;;;;13.58;37.74;101726.62;4456650;32;20511;-69
2021/12/21 05:23:51;;;;;;;8.95;2.78;;;;;;;13.81;37.22;101729.34;4452414;32;20314;-69
2021/12/21 05:26:17;;;;;;;13.85;2.72;;;;;;;13.65;37.22;101728.50;4457257;32;20117;-69
2021/12/21 05:28:43;;;;;;;9.45;2.62;;;;;;;13.80;37.14;101729.78;4455956;32;20033;-69
2021/12/21 05:31:08;;;;;;;11.25;2.83;;;;;;;13.94;37.34;101732.34;4443830;32;20062;-69
2021/12/21 05:33:34;;;;;;;7.85;2.20;;;;;;;14.08;37.45;101726.34;4454379;32;20090;-69
2021/12/21 05:36:00;;;;;;;12.05;2.42;;;;;;;13.94;37.04;101727.44;4457687;32;20048;-69
2021/12/21 05:38:30;;;;;;;9.25;2.58;;;;;;;14.03;37.21;101727.66;4452990;32;20115;-68
2021/12/21 05:40:58;;;;;;;9.25;2.10;;;;;;;13.82;37.14;101724.50;4453018;32;20110;-68
2021/12/21 05:43:24;;;;;;;13.55;2.80;;;;;;;14.04;36.96;101715.13;4460162;32;20036;-69
2021/12/21 05:45:49;;;;;;;10.57;2.97;;;;;;;13.96;37.08;101708.00;4446968;32;20474;-69
2021/12/21 05:48:15;;;;;;;11.40;2.10;;;;;;;14.15;36.46;101708.41;4453066;32;20089;-68
2021/12/21 05:50:41;;;;;;;14.68;3.25;;;;;;;14.13;35.96;101716.53;4453244;32;20108;-68
2021/12/21 05:53:07;;;;;;;14.65;2.92;;;;;;;14.17;36.03;101708.78;4443520;32;20091;-70
2021/12/21 05:55:33;;;;;;;12.40;2.25;;;;;;;14.00;36.26;101711.53;4447153;32;20075;-69
2021/12/21 05:57:59;;;;;;;9.65;1.92;;;;;;;14.05;36.23;101713.06;4445926;32;20089;-69
2021/12/21 06:00:28;;;;;;;15.73;2.10;;;;;;;14.15;36.22;101717.69;4443444;32;20325;-68
2021/12/21 06:02:54;;;;;;;11.68;2.03;;;;;;;14.32;36.00;101718.53;4439411;32;20096;-68
2021/12/21 06:05:21;;;;;;;7.95;1.90;;;;;;;14.20;35.99;101702.22;4445272;32;20037;-68
2021/12/21 06:07:51;;;;;;;11.95;2.15;;;;;;;14.33;35.80;101705.97;4449073;32;20069;-68
2021/12/21 06:10:27;;;;;;;10.75;1.95;;;;;;;14.20;36.21;101707.91;4447186;32;20044;-69
2021/12/21 06:26:18;;;;;;;14.98;2.10;;;;;;;14.32;36.59;101727.84;3955159;32;15725554;-69
2021/12/21 06:28:46;;;;;;;11.38;2.25;;;;;;;14.32;36.59;101727.84;4434281;32;20065;-70
2021/12/21 06:31:12;;;;;;;11.88;2.25;;;;;;;14.13;36.94;101728.66;4434204;32;20065;-71
2021/12/21 06:33:38;;;;;;;11.00;2.15;;;;;;;13.97;37.47;101731.47;4433027;32;20366;-69
2021/12/21 06:36:05;;;;;;;7.20;1.90;;;;;;;14.07;37.21;101731.22;4434438;32;20471;-70
2021/12/21 06:38:31;;;;;;;9.30;3.53;;;;;;;14.25;37.14;101715.88;4432811;32;20077;-70
2021/12/21 06:40:57;;;;;;;7.68;2.33;;;;;;;14.24;37.23;101715.09;4433293;32;20243;-70
2021/12/21 06:43:23;;;;;;;9.57;3.40;;;;;;;14.23;37.32;101719.16;4433056;32;20069;-70
2021/12/21 06:53:51;;;;;;;7.78;2.58;;;;;;;14.49;36.51;101711.66;3982002;32;15024692;-70
2021/12/21 06:56:17;;;;;;;7.03;2.40;;;;;;;14.36;36.53;101716.44;4430920;32;20025;-70
2021/12/21 06:58:44;;;;;;;10.05;3.22;;;;;;;14.33;36.72;101720.16;4434797;32;20052;-70
2021/12/21 07:01:10;;;;;;;7.97;2.40;;;;;;;14.12;37.19;101717.78;4433238;32;20081;-70
2021/12/21 07:03:36;;;;;;;9.48;2.70;;;;;;;14.09;36.71;101710.97;4432413;32;20030;-70
2021/12/21 07:06:05;;;;;;;6.75;2.70;;;;;;;14.17;37.09;101715.22;4431818;32;20569;-70
2021/12/21 07:08:35;;;;;;;8.32;2.40;;;;;;;14.27;37.50;101714.22;4433825;32;20140;-70
2021/12/21 07:19:12;;;;;;;10.50;2.92;;;;;;;14.18;37.45;101719.66;4437861;32;20033;-69
2021/12/21 07:21:38;;;;;;;8.55;3.10;;;;;;;14.18;37.37;101716.81;4440907;32;20133;-70
2021/12/21 07:24:05;;;;;;;8.57;2.83;;;;;;;14.20;37.28;101714.34;4440055;32;20466;-69
2021/12/21 07:26:30;;;;;;;9.85;3.22;;;;;;;14.01;37.68;101712.34;4437021;32;20030;-69
2021/12/21 07:28:57;;;;;;;8.38;2.70;;;;;;;14.22;37.89;101709.03;4438305;32;20073;-69
2021/12/21 07:31:22;;;;;;;8.57;3.30;;;;;;;14.25;37.69;101702.53;4433029;32;20680;-69
2021/12/21 07:33:48;;;;;;;10.90;2.72;;;;;;;14.32;37.59;101710.84;4438051;32;20062;-69
2021/12/21 07:36:14;;;;;;;7.28;2.92;;;;;;;14.32;37.75;101705.19;4435353;32;20402;-69
2021/12/21 07:38:39;;;;;;;7.72;3.00;;;;;;;14.25;37.27;101705.34;4435511;32;20037;-69
2021/12/21 07:41:05;;;;;;;10.52;3.55;;;;;;;14.19;37.43;101712.75;4433722;32;20029;-70
2021/12/21 07:43:31;;;;;;;9.10;3.10;;;;;;;14.24;37.49;101703.78;4436523;32;20447;-69
2021/12/21 07:45:57;;;;;;;18.12;2.80;;;;;;;13.96;37.54;101712.84;4437137;32;20076;-69
2021/12/21 07:48:23;;;;;;;8.15;3.20;;;;;;;13.88;37.88;101714.28;4435973;32;20046;-69
2021/12/21 07:50:50;;;;;;;8.15;2.90;;;;;;;13.92;38.11;101700.81;4434213;32;20064;-69
2021/12/21 07:53:17;;;;;;;7.97;3.20;;;;;;;13.87;38.50;101713.47;4438080;32;20325;-69
2021/12/21 07:55:43;;;;;;;9.30;2.65;;;;;;;13.82;38.57;101708.34;4440508;32;20533;-69
2021/12/21 07:58:12;;;;;;;6.47;2.17;;;;;;;13.90;38.08;101715.41;4436789;32;20099;-69
2021/12/21 08:00:39;;;;;;;4.22;2.22;;;;;;;14.09;38.17;101708.13;4437888;32;20460;-69
2021/12/21 08:03:05;;;;;;;7.78;2.30;;;;;;;14.08;37.79;101707.31;4435883;32;20091;-69
2021/12/21 08:05:34;;;;;;;11.25;2.40;;;;;;;13.99;37.70;101712.78;4438043;32;20134;-69
2021/12/21 08:08:21;;;;;;;8.85;1.95;;;;;;;13.92;37.89;101718.63;4434835;32;20021;-69
2021/12/21 08:10:52;;;;;;;3.70;1.58;;;;;;;14.14;37.44;101716.09;4434050;32;20427;-69
2021/12/21 08:13:18;;;;;;;9.05;1.98;;;;;;;14.02;37.67;101714.75;4436320;32;20045;-69
2021/12/21 08:15:45;;;;;;;5.72;1.80;;;;;;;13.92;37.76;101712.97;4438535;32;20583;-69
2021/12/21 08:18:10;;;;;;;8.52;1.90;;;;;;;14.12;37.58;101720.59;4436328;32;20152;-69
2021/12/21 08:20:36;;;;;;;7.22;2.25;;;;;;;14.05;37.56;101718.72;4434393;32;20094;-69
2021/12/21 08:23:05;;;;;;;7.97;2.60;;;;;;;14.14;37.49;101721.75;4436993;32;20155;-70
2021/12/21 08:25:32;;;;;;;6.78;2.20;;;;;;;14.16;37.85;101722.13;4425471;32;20085;-69
2021/12/21 08:28:00;;;;;;;5.32;1.95;;;;;;;13.97;37.75;101722.97;4425642;32;20104;-69
2021/12/21 08:30:27;;;;;;;10.23;2.60;;;;;;;13.92;37.83;101723.47;4427204;32;20077;-69
2021/12/21 08:32:54;;;;;;;7.68;2.05;;;;;;;13.68;38.17;101714.28;4429164;32;20239;-69
2021/12/21 08:35:20;;;;;;;11.45;2.40;;;;;;;13.90;37.92;101714.63;4422316;32;20073;-69
2021/12/21 08:37:51;;;;;;;20.65;3.90;;;;;;;14.01;38.00;101713.16;4424039;32;20068;-69
2021/12/21 08:40:18;;;;;;;16.37;3.40;;;;;;;13.88;38.53;101726.41;4422788;32;20097;-69
2021/12/21 08:42:47;;;;;;;14.10;4.45;;;;;;;14.04;37.91;101720.78;4423944;32;20149;-69
2021/12/21 08:45:12;;;;;;;8.43;2.90;;;;;;;14.06;37.79;101704.13;4426868;32;20073;-69
2021/12/21 08:47:39;;;;;;;14.07;3.80;;;;;;;13.78;38.22;101706.81;4423424;32;20100;-69
2021/12/21 08:50:06;;;;;;;14.57;3.97;;;;;;;13.87;38.12;101716.28;4423155;32;20455;-70
2021/12/21 08:52:34;;;;;;;18.40;3.53;;;;;;;14.19;38.37;101718.41;4425811;32;20046;-70
2021/12/21 08:55:02;;;;;;;10.25;2.83;;;;;;;14.12;38.07;101712.91;4425430;32;20094;-70
2021/12/21 08:57:29;;;;;;;6.32;2.95;;;;;;;13.98;38.33;101716.06;4423937;32;20063;-69
2021/12/21 08:59:55;;;;;;;10.25;2.95;;;;;;;14.08;37.76;101713.00;4423771;32;20033;-69
2021/12/21 09:02:21;;;;;;;7.53;2.80;;;;;;;13.99;38.04;101714.81;4423875;32;20163;-69
2021/12/21 09:04:46;;;;;;;7.53;2.72;;;;;;;13.63;38.61;101714.78;4419958;32;20025;-69
2021/12/21 09:07:12;;;;;;;9.18;3.17;;;;;;;13.65;38.42;101718.00;4424732;32;20257;-69
2021/12/21 09:09:38;;;;;;;10.82;3.33;;;;;;;13.56;38.72;101726.25;4418758;32;20084;-69
2021/12/21 09:12:04;;;;;;;8.80;2.95;;;;;;;13.42;38.88;101720.91;4420177;32;20089;-70
2021/12/21 09:14:32;;;;;;;11.90;3.33;;;;;;;13.59;38.25;101728.22;4423715;32;20059;-70
2021/12/21 09:16:59;;;;;;;7.75;3.97;;;;;;;13.44;38.27;101728.97;4425376;32;20101;-70
2021/12/21 09:19:24;;;;;;;5.05;1.85;;;;;;;13.76;38.15;101720.59;4424156;32;20184;-70
2021/12/21 09:21:50;;;;;;;10.50;3.30;;;;;;;13.64;37.38;101715.59;4425303;32;20065;-70
2021/12/21 09:24:17;;;;;;;10.10;2.72;;;;;;;13.68;37.11;101719.13;4424865;32;20045;-70
2021/12/21 09:26:43;;;;;;;12.90;2.80;;;;;;;13.64;37.39;101718.44;4421266;32;20340;-69
2021/12/21 09:29:08;;;;;;;12.98;3.22;;;;;;;13.68;37.71;101716.31;4421051;32;20038;-70
2021/12/21 09:31:34;;;;;;;7.07;2.53;;;;;;;13.48;37.90;101710.69;4425782;32;20073;-70
2021/12/21 09:34:00;;;;;;;12.30;2.70;;;;;;;13.66;37.49;101725.22;4425086;32;20060;-70
2021/12/21 09:36:28;;;;;;;11.63;2.50;;;;;;;13.67;37.42;101732.50;4421727;32;20063;-69
2021/12/21 09:38:55;;;;;;;9.73;2.65;;;;;;;13.72;37.05;101736.84;4421345;32;20065;-70
2021/12/21 09:41:22;;;;;;;21.33;3.55;;;;;;;13.93;36.95;101742.06;4422761;32;20070;-70
2021/12/21 09:43:47;;;;;;;9.98;3.25;;;;;;;13.61;37.89;101747.59;4421635;32;20056;-69
2021/12/21 09:46:15;;;;;;;14.18;3.40;;;;;;;13.33;38.37;101734.81;4417123;32;20086;-70
2021/12/21 09:48:41;;;;;;;8.88;2.60;;;;;;;13.70;37.76;101737.28;4403241;32;20045;-70
2021/12/21 09:51:07;;;;;;;4.07;2.40;;;;;;;13.40;37.77;101740.31;4418504;32;20106;-70
2021/12/21 09:53:35;;;;;;;9.98;2.53;;;;;;;13.55;37.71;101746.50;4422497;32;20101;-70
2021/12/21 09:56:03;;;;;;;8.45;2.40;;;;;;;13.35;37.77;101748.53;4423248;32;21123;-70
2021/12/21 09:58:29;;;;;;;8.25;2.62;;;;;;;13.28;38.05;101749.44;4423969;32;20115;-70
2021/12/21 10:00:55;;;;;;;9.05;2.45;;;;;;;13.18;38.15;101738.34;4420809;32;20102;-69
2021/12/21 10:03:21;;;;;;;7.15;2.62;;;;;;;13.07;38.03;101741.34;4423258;32;20033;-70
2021/12/21 10:05:46;;;;;;;10.65;2.72;;;;;;;13.11;37.67;101744.12;4420740;32;20557;-68
2021/12/21 10:08:16;;;;;;;7.47;2.22;;;;;;;13.45;37.46;101756.00;4423112;32;20026;-68
2021/12/21 10:10:45;;;;;;;7.10;2.20;;;;;;;13.91;36.61;101753.81;4425448;32;20060;-69
2021/12/21 10:13:16;;;;;;;8.45;1.83;;;;;;;13.68;36.84;101751.06;4423186;32;20080;-69
2021/12/21 10:15:46;;;;;;;11.38;2.87;;;;;;;13.70;36.84;101742.94;4421685;32;20077;-68
2021/12/21 10:18:14;;;;;;;11.12;3.05;;;;;;;13.82;37.09;101750.78;4421453;32;20085;-68
2021/12/21 10:20:45;;;;;;;11.02;2.47;;;;;;;13.64;37.24;101743.88;4421024;32;20496;-71
2021/12/21 10:23:18;;;;;;;13.60;2.30;;;;;;;13.79;36.79;101746.00;4422361;32;20067;-69
2021/12/21 10:31:08;;;;;;;10.30;2.75;;;;;;;14.31;36.72;101748.09;3981425;32;15094866;-70
2021/12/21 10:33:36;;;;;;;13.57;2.50;;;;;;;14.31;36.72;101748.09;4434552;32;20013;-69
2021/12/21 10:36:05;;;;;;;18.70;3.20;;;;;;;14.06;36.48;101726.78;4437033;32;20069;-69
2021/12/21 10:38:35;;;;;;;20.25;3.37;;;;;;;14.14;36.35;101732.28;4429758;32;20104;-74
2021/12/21 10:43:55;;;;;;;12.52;3.05;;;;;;;14.88;35.59;101726.41;3982236;32;15021687;-70
2021/12/21 10:46:21;;;;;;;10.07;2.70;;;;;;;14.88;35.59;101726.41;4432140;32;20084;-70
2021/12/21 10:48:49;;;;;;;10.43;3.83;;;;;;;14.24;35.80;101715.09;4433269;32;20092;-70
2021/12/21 10:51:16;;;;;;;18.50;3.62;;;;;;;13.70;36.17;101714.66;4433203;32;20128;-69
2021/12/21 10:53:47;;;;;;;11.25;3.42;;;;;;;13.92;36.28;101718.63;4433075;32;20037;-70
2021/12/21 10:56:14;;;;;;;12.60;3.12;;;;;;;14.07;36.20;101714.22;4430282;32;20029;-70
2021/12/21 10:58:42;;;;;;;10.25;2.92;;;;;;;14.03;36.25;101716.31;4426841;32;20121;-70
2021/12/21 11:01:11;;;;;;;6.10;2.97;;;;;;;14.13;36.05;101702.38;4433874;32;20077;-69
2021/12/21 11:03:51;;;;;;;8.75;3.42;;;;;;;14.10;36.05;101704.06;4432207;32;20101;-70
2021/12/21 11:06:23;;;;;;;9.55;3.33;;;;;;;14.30;35.57;101704.81;4432264;32;20451;-70
2021/12/21 11:08:53;;;;;;;9.60;3.75;;;;;;;14.30;35.67;101701.97;4433185;32;20093;-70
2021/12/21 11:11:22;;;;;;;10.98;3.70;;;;;;;14.26;35.55;101700.50;4427937;32;20100;-69
2021/12/21 11:16:43;;;;;;;14.90;3.80;;;;;;;14.75;35.21;101704.91;3959409;32;15144156;-69
2021/12/21 11:19:11;;;;;;;10.13;3.37;;;;;;;14.75;35.21;101704.91;4412623;32;20064;-69
2021/12/21 11:21:37;;;;;;;11.27;3.55;;;;;;;14.32;35.46;101693.03;4416009;32;20052;-70
2021/12/21 11:24:07;;;;;;;12.10;3.78;;;;;;;14.01;35.94;101693.34;4414334;32;20237;-69
2021/12/21 11:26:35;;;;;;;12.07;3.58;;;;;;;14.07;35.80;101693.63;4417164;32;20452;-69
2021/12/21 11:29:04;;;;;;;19.15;4.28;;;;;;;14.15;35.66;101688.59;4415557;32;20060;-69
2021/12/21 11:31:30;;;;;;;13.20;3.80;;;;;;;14.38;35.31;101686.41;4416131;32;20454;-69
2021/12/21 11:33:58;;;;;;;20.02;5.03;;;;;;;14.29;35.57;101674.91;4415855;32;20074;-69
2021/12/21 11:39:12;;;;;;;15.43;4.82;;;;;;;14.04;35.70;101675.50;4414460;32;20081;-69
2021/12/21 11:41:40;;;;;;;11.63;4.70;;;;;;;14.41;35.49;101676.22;4398190;32;20087;-70
2021/12/21 11:49:47;;;;;;;16.08;4.97;;;;;;;14.46;35.11;101664.37;3981337;32;15025037;-70
2021/12/21 11:52:19;;;;;;;12.20;4.75;;;;;;;14.68;35.50;101665.44;4439438;32;20478;-69
2021/12/21 11:54:49;;;;;;;8.25;4.25;;;;;;;14.16;35.88;101659.84;4437438;32;20803;-70
2021/12/21 11:57:18;;;;;;;17.52;5.55;;;;;;;14.00;35.83;101657.00;4437664;32;20074;-70
2021/12/21 11:59:47;;;;;;;8.93;4.28;;;;;;;14.03;36.31;101664.59;4439611;32;20084;-69
2021/12/21 12:02:13;;;;;;;12.63;4.68;;;;;;;14.15;36.14;101665.94;4437278;32;20126;-71
2021/12/21 12:04:39;;;;;;;29.75;5.87;;;;;;;14.01;35.46;101667.87;4434663;32;20033;-71
2021/12/21 12:07:15;;;;;;;14.10;6.03;;;;;;;13.88;36.33;101671.81;4435463;32;20048;-71
2021/12/21 12:09:42;;;;;;;15.68;6.18;;;;;;;13.88;36.14;101663.34;4436970;32;20090;-71
2021/12/21 12:12:12;;;;;;;15.55;6.50;;;;;;;13.62;37.03;101658.66;4438864;32;20147;-71
2021/12/21 12:14:39;;;;;;;21.77;7.10;;;;;;;14.04;36.70;101660.53;4435955;32;21518;-71
2021/12/21 12:19:53;;;;;;;14.55;5.95;;;;;;;14.55;36.15;101654.03;3976172;32;15026942;-70
2021/12/21 12:22:24;;;;;;;19.80;7.62;;;;;;;14.55;36.15;101654.03;4435352;32;20141;-70
2021/12/21 12:24:58;;;;;;;14.05;7.78;;;;;;;13.74;37.11;101647.47;4429779;32;20068;-70
2021/12/21 12:27:27;;;;;;;16.87;8.40;;;;;;;13.61;37.38;101649.41;4434063;32;20034;-70
2021/12/21 12:40:53;;;;;;;31.83;12.50;;;;;;;14.41;36.43;101653.56;3979850;32;15021877;-70
2021/12/21 12:43:30;;;;;;;24.60;12.35;;;;;;;14.41;36.43;101653.56;4431759;32;20084;-71
2021/12/21 12:46:04;;;;;;;19.85;9.77;;;;;;;14.12;36.45;101644.97;4430785;32;20070;-70
2021/12/21 12:51:08;;;;;;;27.73;11.20;;;;;;;14.26;35.88;101647.47;3981397;32;15025361;-70
2021/12/21 12:56:15;;;;;;;21.02;10.55;;;;;;;14.17;36.55;101640.81;3980960;32;15024115;-70
2021/12/21 12:59:03;;;;;;;19.20;10.55;;;;;;;14.17;36.55;101640.81;4433403;32;20021;-70
2021/12/21 13:01:31;;;;;;;23.98;11.38;;;;;;;13.70;37.01;101635.44;4437020;32;20379;-70
2021/12/21 13:04:04;;;;;;;18.70;10.10;;;;;;;13.65;37.37;101643.63;4433981;32;20057;-70
2021/12/21 13:06:33;;;;;;;22.13;10.38;;;;;;;13.04;38.14;101643.31;4430825;32;20475;-69